createdAt,value
2019-03-24T00:02:28.705Z,66.67
2019-03-24T00:04:59.720Z,66.76
2019-03-24T00:07:30.834Z,66.97
2019-03-24T00:10:02.844Z,66.68
2019-03-24T00:12:33.955Z,66.60
2019-03-24T00:15:09.378Z,66.88
2019-03-24T00:17:40.997Z,67.20
2019-03-24T00:20:13.718Z,67.10
2019-03-24T00:22:44.838Z,67.24
2019-03-24T00:25:15.949Z,67.08
2019-03-24T00:27:47.091Z,67.05
2019-03-24T00:30:18.235Z,67.10
2019-03-24T00:32:49.319Z,66.96
2019-03-24T00:35:20.452Z,66.91
2019-03-24T00:37:51.623Z,67.00
2019-03-24T00:40:22.834Z,67.18
2019-03-24T00:42:54.398Z,67.20
2019-03-24T00:45:36.215Z,67.31
2019-03-24T00:47:58.411Z,68.00
2019-03-24T00:50:29.535Z,67.90
2019-03-24T00:53:00.699Z,67.88
2019-03-24T00:55:31.744Z,67.98
2019-03-24T00:58:02.803Z,67.78
2019-03-24T01:00:45.317Z,67.87
2019-03-24T01:03:16.602Z,68.14
2019-03-24T01:05:47.835Z,68.01
2019-03-24T01:08:19.159Z,68.22
2019-03-24T01:10:50.278Z,68.22
2019-03-24T01:13:23.242Z,68.21
2019-03-24T01:15:54.307Z,68.40
2019-03-24T01:18:25.455Z,68.58
2019-03-24T01:20:56.602Z,68.81
2019-03-24T01:23:27.666Z,68.81
2019-03-24T01:25:58.759Z,69.00
2019-03-24T01:28:30.026Z,68.90
2019-03-24T01:31:01.078Z,68.96
2019-03-24T01:33:32.254Z,68.62
2019-03-24T01:36:03.463Z,68.68
2019-03-24T01:38:34.545Z,68.49
2019-03-24T01:41:08.001Z,68.55
2019-03-24T01:43:39.745Z,68.10
2019-03-24T01:46:10.803Z,67.90
2019-03-24T01:48:42.197Z,68.06
2019-03-24T01:51:13.360Z,67.54
2019-03-24T01:53:45.529Z,67.93
2019-03-24T01:56:16.706Z,67.84
2019-03-24T01:58:47.879Z,67.59
2019-03-24T02:01:19.107Z,67.44
2019-03-24T02:03:50.444Z,67.65
2019-03-24T02:06:21.463Z,67.71
2019-03-24T02:08:52.624Z,67.18
2019-03-24T02:11:23.837Z,67.37
2019-03-24T02:13:54.876Z,67.18
2019-03-24T02:16:26.029Z,67.32
2019-03-24T02:18:57.329Z,67.34
2019-03-24T02:21:28.451Z,67.38
2019-03-24T02:24:00.204Z,67.43
2019-03-24T02:26:31.374Z,67.58
2019-03-24T02:29:02.558Z,67.59
2019-03-24T02:31:34.768Z,67.42
2019-03-24T02:34:05.779Z,67.43
2019-03-24T02:36:37.364Z,67.20
2019-03-24T02:39:08.652Z,67.63
2019-03-24T02:41:39.779Z,67.12
2019-03-24T02:44:11.040Z,67.28
2019-03-24T02:46:42.401Z,67.10
2019-03-24T02:49:14.494Z,66.95
2019-03-24T02:51:45.658Z,66.94
2019-03-24T02:54:16.942Z,66.96
2019-03-24T02:56:47.929Z,66.75
2019-03-24T02:59:20.316Z,66.67
2019-03-24T03:01:51.593Z,66.88
2019-03-24T03:04:22.680Z,66.57
2019-03-24T03:06:53.782Z,66.63
2019-03-24T03:09:26.468Z,66.84
2019-03-24T03:11:57.494Z,66.74
2019-03-24T03:14:28.583Z,66.67
2019-03-24T03:16:59.768Z,66.70
2019-03-24T03:19:31.002Z,66.66
2019-03-24T03:22:02.181Z,66.68
2019-03-24T03:24:33.441Z,67.09
2019-03-24T03:27:04.666Z,67.07
2019-03-24T03:29:37.693Z,66.80
2019-03-24T03:32:08.978Z,66.83
2019-03-24T03:34:40.077Z,66.70
2019-03-24T03:37:11.193Z,67.05
2019-03-24T03:39:42.388Z,67.12
2019-03-24T03:42:13.503Z,66.98
2019-03-24T03:44:44.722Z,66.99
2019-03-24T03:47:15.794Z,67.01
2019-03-24T03:49:46.867Z,67.03
2019-03-24T03:52:17.969Z,67.11
2019-03-24T03:54:49.110Z,66.96
2019-03-24T03:57:20.165Z,67.13
2019-03-24T03:59:51.433Z,67.34
2019-03-24T04:02:22.678Z,67.31
2019-03-24T04:04:53.833Z,67.39
2019-03-24T04:07:24.970Z,67.47
2019-03-24T04:09:56.166Z,67.69
2019-03-24T04:12:27.217Z,67.64
2019-03-24T04:14:58.306Z,67.38
2019-03-24T04:17:29.469Z,67.45
2019-03-24T04:20:00.710Z,66.62
2019-03-24T04:22:31.828Z,66.63
2019-03-24T04:25:03.055Z,66.93
2019-03-24T04:27:34.186Z,67.09
2019-03-24T04:30:06.798Z,67.28
2019-03-24T04:32:38.013Z,67.34
2019-03-24T04:35:09.117Z,66.96
2019-03-24T04:37:40.326Z,66.93
2019-03-24T04:40:12.939Z,67.08
2019-03-24T04:42:44.183Z,66.97
2019-03-24T04:45:15.315Z,66.83
2019-03-24T04:47:46.437Z,66.56
2019-03-24T04:50:17.613Z,66.72
2019-03-24T04:52:48.689Z,66.34
2019-03-24T04:55:19.980Z,66.47
2019-03-24T04:57:51.143Z,66.32
2019-03-24T05:00:25.630Z,66.23
2019-03-24T05:02:56.867Z,66.21
2019-03-24T05:05:28.092Z,66.31
2019-03-24T05:07:59.206Z,66.17
2019-03-24T05:10:30.313Z,66.24
2019-03-24T05:13:01.453Z,66.10
2019-03-24T05:15:32.658Z,65.90
2019-03-24T05:18:06.693Z,65.75
2019-03-24T05:20:37.948Z,66.00
2019-03-24T05:23:08.947Z,66.16
2019-03-24T05:25:40.024Z,65.80
2019-03-24T05:28:11.088Z,65.95
2019-03-24T05:30:42.237Z,65.81
2019-03-24T05:33:13.364Z,65.57
2019-03-24T05:35:44.438Z,65.71
2019-03-24T05:38:15.551Z,65.42
2019-03-24T05:40:46.622Z,65.74
2019-03-24T05:43:17.939Z,65.45
2019-03-24T05:45:49.015Z,65.21
2019-03-24T05:48:20.136Z,65.32
2019-03-24T05:50:51.239Z,65.39
2019-03-24T05:53:22.294Z,65.08
2019-03-24T05:55:53.397Z,64.67
2019-03-24T05:58:25.527Z,64.45
2019-03-24T06:00:56.884Z,64.50
2019-03-24T06:03:27.958Z,64.17
2019-03-24T06:05:59.064Z,64.07
2019-03-24T06:08:30.184Z,63.83
2019-03-24T06:11:01.503Z,63.92
2019-03-24T06:13:32.611Z,63.53
2019-03-24T06:16:05.288Z,63.56
2019-03-24T06:18:36.431Z,63.25
2019-03-24T06:21:07.554Z,62.87
2019-03-24T06:23:40.362Z,62.61
2019-03-24T06:26:11.477Z,62.33
2019-03-24T06:28:44.883Z,62.21
2019-03-24T06:31:17.665Z,61.78
2019-03-24T06:33:48.854Z,61.07
2019-03-24T06:36:19.895Z,60.75
2019-03-24T06:38:51.039Z,61.23
2019-03-24T06:41:23.048Z,61.00
2019-03-24T06:43:54.350Z,60.74
2019-03-24T06:46:25.513Z,60.48
2019-03-24T06:48:56.679Z,60.33
2019-03-24T06:51:27.802Z,59.70
2019-03-24T06:53:58.902Z,59.09
2019-03-24T06:56:30.001Z,58.94
2019-03-24T06:59:01.904Z,57.94
2019-03-24T07:01:33.244Z,57.50
2019-03-24T07:04:04.403Z,57.34
2019-03-24T07:06:37.114Z,57.34
2019-03-24T07:09:08.247Z,56.60
2019-03-24T07:11:39.320Z,55.97
2019-03-24T07:14:10.433Z,56.00
2019-03-24T07:16:41.465Z,54.82
2019-03-24T07:19:12.624Z,54.39
2019-03-24T07:21:43.558Z,53.98
2019-03-24T07:24:15.697Z,53.92
2019-03-24T07:26:46.788Z,53.30
2019-03-24T07:29:17.908Z,53.19
2019-03-24T07:31:50.762Z,53.62
2019-03-24T07:34:21.900Z,53.86
2019-03-24T07:36:52.875Z,53.52
2019-03-24T07:39:23.849Z,52.17
2019-03-24T07:41:54.903Z,51.60
2019-03-24T07:44:25.955Z,50.68
2019-03-24T07:46:58.005Z,50.75
2019-03-24T07:49:29.146Z,51.33
2019-03-24T07:52:00.430Z,50.14
2019-03-24T07:54:31.408Z,48.20
2019-03-24T07:57:02.542Z,49.38
2019-03-24T07:59:34.475Z,49.78
2019-03-24T08:02:05.409Z,49.95
2019-03-24T08:04:36.612Z,50.46
2019-03-24T08:07:07.695Z,50.83
2019-03-24T08:09:38.861Z,50.55
2019-03-24T08:12:10.429Z,50.08
2019-03-24T08:14:45.615Z,49.64
2019-03-24T08:17:16.658Z,49.00
2019-03-24T08:19:48.128Z,48.00
2019-03-24T08:22:20.348Z,48.01
2019-03-24T08:24:52.236Z,47.75
2019-03-24T08:27:29.862Z,47.87
2019-03-24T08:30:01.005Z,48.42
2019-03-24T08:32:32.662Z,48.14
2019-03-24T08:35:05.146Z,47.18
2019-03-24T08:37:36.574Z,46.49
2019-03-24T08:40:07.696Z,46.95
2019-03-24T08:42:39.721Z,46.07
2019-03-24T08:45:13.942Z,45.57
2019-03-24T08:47:44.958Z,45.32
2019-03-24T08:50:15.956Z,44.42
2019-03-24T08:52:47.141Z,45.04
2019-03-24T08:55:18.104Z,45.62
2019-03-24T08:57:49.462Z,44.78
2019-03-24T09:00:30.169Z,44.58
2019-03-24T09:02:53.519Z,44.48
2019-03-24T09:05:24.466Z,44.11
2019-03-24T09:07:55.548Z,43.63
2019-03-24T09:10:26.622Z,43.56
2019-03-24T09:12:57.546Z,43.71
2019-03-24T09:15:28.653Z,43.78
2019-03-24T09:17:59.706Z,44.34
2019-03-24T09:20:40.971Z,44.86
2019-03-24T09:23:04.259Z,44.40
2019-03-24T09:25:36.099Z,44.43
2019-03-24T09:28:09.320Z,43.80
2019-03-24T09:30:40.885Z,44.13
2019-03-24T09:33:11.885Z,44.08
2019-03-24T09:35:42.988Z,43.56
2019-03-24T09:38:14.029Z,43.01
2019-03-24T09:40:44.906Z,42.88
2019-03-24T09:43:16.020Z,42.70
2019-03-24T09:45:47.081Z,43.09
2019-03-24T09:48:18.481Z,43.49
2019-03-24T09:50:49.348Z,43.07
2019-03-24T09:53:21.479Z,42.83
2019-03-24T09:55:54.365Z,42.80
2019-03-24T09:58:25.433Z,42.88
2019-03-24T10:00:56.513Z,42.83
2019-03-24T10:03:27.905Z,42.40
2019-03-24T10:05:58.814Z,41.98
2019-03-24T10:08:29.909Z,42.08
2019-03-24T10:11:01.075Z,41.84
2019-03-24T10:13:32.287Z,41.35
2019-03-24T10:16:03.448Z,41.08
2019-03-24T10:18:34.379Z,41.00
2019-03-24T10:21:05.399Z,42.17
2019-03-24T10:23:36.519Z,41.73
2019-03-24T10:26:07.571Z,40.72
2019-03-24T10:28:38.553Z,40.88
2019-03-24T10:31:09.867Z,40.59
2019-03-24T10:33:40.970Z,41.20
2019-03-24T10:36:12.385Z,40.95
2019-03-24T10:38:43.628Z,41.04
2019-03-24T10:41:14.601Z,39.14
2019-03-24T10:43:45.616Z,38.95
2019-03-24T10:46:16.705Z,39.15
2019-03-24T10:48:47.874Z,39.07
2019-03-24T10:51:18.911Z,38.66
2019-03-24T10:53:50.083Z,39.27
2019-03-24T10:56:21.093Z,38.79
2019-03-24T10:58:51.998Z,39.23
2019-03-24T11:01:23.126Z,39.53
2019-03-24T11:03:54.268Z,39.45
2019-03-24T11:06:25.389Z,39.57
2019-03-24T11:08:56.457Z,39.74
2019-03-24T11:11:27.457Z,39.88
2019-03-24T11:13:58.989Z,40.05
2019-03-24T11:16:30.195Z,40.34
2019-03-24T11:19:01.570Z,40.43
2019-03-24T11:21:32.627Z,40.57
2019-03-24T11:24:04.040Z,40.25
2019-03-24T11:26:35.307Z,40.73
2019-03-24T11:29:07.569Z,41.10
2019-03-24T11:31:38.762Z,40.98
2019-03-24T11:34:09.868Z,40.84
2019-03-24T11:36:41.083Z,41.02
2019-03-24T11:39:12.300Z,41.21
2019-03-24T11:41:43.346Z,40.17
2019-03-24T11:44:14.687Z,40.18
2019-03-24T11:46:45.814Z,40.44
2019-03-24T11:49:16.152Z,40.33
2019-03-24T11:51:47.285Z,40.48
2019-03-24T11:54:18.615Z,40.33
2019-03-24T11:56:49.732Z,39.64
2019-03-24T11:59:20.834Z,41.40
2019-03-24T12:01:51.795Z,41.12
2019-03-24T12:04:23.090Z,41.00
2019-03-24T12:06:54.178Z,40.67
2019-03-24T12:09:25.255Z,40.42
2019-03-24T12:11:56.375Z,40.48
2019-03-24T12:14:27.595Z,40.48
2019-03-24T12:16:58.643Z,39.91
2019-03-24T12:19:30.622Z,39.59
2019-03-24T12:22:01.519Z,39.62
2019-03-24T12:24:32.633Z,39.57
2019-03-24T12:27:03.687Z,39.77
2019-03-24T12:29:34.735Z,39.64
2019-03-24T12:32:05.658Z,40.12
2019-03-24T12:34:36.757Z,39.83
2019-03-24T12:37:07.966Z,40.09
2019-03-24T12:39:39.133Z,40.06
2019-03-24T12:42:10.079Z,39.82
2019-03-24T12:44:41.326Z,40.35
2019-03-24T12:47:13.051Z,39.99
2019-03-24T12:49:44.049Z,39.49
2019-03-24T12:52:15.131Z,38.81
2019-03-24T12:54:46.136Z,38.82
2019-03-24T12:57:17.323Z,38.38
2019-03-24T12:59:48.357Z,38.24
2019-03-24T13:02:19.773Z,38.48
2019-03-24T13:04:51.053Z,38.63
2019-03-24T13:07:22.276Z,38.89
2019-03-24T13:09:54.050Z,39.60
2019-03-24T13:12:25.372Z,39.66
2019-03-24T13:14:56.311Z,39.85
2019-03-24T13:17:27.367Z,39.82
2019-03-24T13:19:58.462Z,40.05
2019-03-24T13:22:29.493Z,40.53
2019-03-24T13:25:01.882Z,40.40
2019-03-24T13:27:33.069Z,40.36
2019-03-24T13:30:05.915Z,40.50
2019-03-24T13:32:37.049Z,40.23
2019-03-24T13:37:57.002Z,40.46
2019-03-24T13:40:28.865Z,40.58
2019-03-24T13:42:59.920Z,40.91
2019-03-24T13:45:31.131Z,41.39
2019-03-24T13:48:02.328Z,41.57
2019-03-24T13:50:33.391Z,41.67
2019-03-24T13:53:05.047Z,41.63
2019-03-24T13:55:39.217Z,41.83
2019-03-24T13:58:15.688Z,42.05
2019-03-24T14:00:47.126Z,42.09
2019-03-24T14:03:18.194Z,42.18
2019-03-24T14:05:49.297Z,41.70
2019-03-24T14:08:20.317Z,41.73
2019-03-24T14:10:51.328Z,41.89
2019-03-24T14:13:22.555Z,42.08
2019-03-24T14:15:55.503Z,41.83
2019-03-24T14:18:26.558Z,41.78
2019-03-24T14:20:57.743Z,41.86
2019-03-24T14:23:28.786Z,42.03
2019-03-24T14:25:59.754Z,42.17
2019-03-24T14:28:30.789Z,42.59
2019-03-24T14:31:01.821Z,42.51
2019-03-24T14:33:34.128Z,42.83
2019-03-24T14:36:05.380Z,42.78
2019-03-24T14:38:36.473Z,42.86
2019-03-24T14:41:08.869Z,42.61
2019-03-24T14:43:41.076Z,42.62
2019-03-24T14:46:12.245Z,42.56
2019-03-24T14:48:43.486Z,42.96
2019-03-24T14:51:14.704Z,42.76
2019-03-24T14:53:45.880Z,42.67
2019-03-24T14:56:16.963Z,42.57
2019-03-24T14:58:48.080Z,42.55
2019-03-24T15:01:19.089Z,42.62
2019-03-24T15:03:50.124Z,42.56
2019-03-24T15:06:22.337Z,42.75
2019-03-24T15:08:53.602Z,42.83
2019-03-24T15:11:25.892Z,42.71
2019-03-24T15:13:57.000Z,42.76
2019-03-24T15:16:28.162Z,42.97
2019-03-24T15:18:59.341Z,42.97
2019-03-24T15:21:30.535Z,43.45
2019-03-24T15:24:01.774Z,43.08
2019-03-24T15:26:33.017Z,43.15
2019-03-24T15:29:05.829Z,43.30
2019-03-24T15:31:37.454Z,43.26
2019-03-24T15:34:08.703Z,43.22
2019-03-24T15:36:39.942Z,43.33
2019-03-24T15:39:11.159Z,43.25
2019-03-24T15:41:43.525Z,43.40
2019-03-24T15:44:14.798Z,43.53
2019-03-24T15:46:46.902Z,43.52
2019-03-24T15:49:18.145Z,43.63
2019-03-24T15:51:49.220Z,43.97
2019-03-24T15:54:22.650Z,43.70
2019-03-24T15:56:53.794Z,43.95
2019-03-24T15:59:25.068Z,44.15
2019-03-24T16:01:56.219Z,44.03
2019-03-24T16:04:27.525Z,43.99
2019-03-24T16:06:59.145Z,43.81
2019-03-24T16:09:30.267Z,44.07
2019-03-24T16:12:01.459Z,44.12
2019-03-24T16:14:32.753Z,44.28
2019-03-24T16:17:03.929Z,44.13
2019-03-24T16:19:39.108Z,44.64
2019-03-24T16:22:11.993Z,44.24
2019-03-24T16:24:43.106Z,44.28
2019-03-24T16:27:17.210Z,44.48
2019-03-24T16:29:48.522Z,44.27
2019-03-24T16:32:23.244Z,44.28
2019-03-24T16:34:55.733Z,44.38
2019-03-24T16:37:27.824Z,44.36
2019-03-24T16:39:59.524Z,44.42
2019-03-24T16:42:32.947Z,44.53
2019-03-24T16:45:05.213Z,44.81
2019-03-24T16:47:36.409Z,44.97
2019-03-24T16:50:07.968Z,45.08
2019-03-24T16:52:39.143Z,44.84
2019-03-24T16:55:12.229Z,45.28
2019-03-24T16:57:44.280Z,44.98
2019-03-24T17:00:15.419Z,45.18
2019-03-24T17:02:46.773Z,45.12
2019-03-24T17:05:18.011Z,45.02
2019-03-24T17:07:50.208Z,45.17
2019-03-24T17:10:21.645Z,45.30
2019-03-24T17:12:52.704Z,45.34
2019-03-24T17:15:23.784Z,45.33
2019-03-24T17:17:55.035Z,45.46
2019-03-24T17:20:26.336Z,45.62
2019-03-24T17:22:57.518Z,45.65
2019-03-24T17:25:28.828Z,45.49
2019-03-24T17:28:00.604Z,45.59
2019-03-24T17:30:32.180Z,45.66
2019-03-24T17:33:03.741Z,45.88
2019-03-24T17:35:34.854Z,45.88
2019-03-24T17:38:06.116Z,46.06
2019-03-24T17:40:39.019Z,46.33
2019-03-24T17:43:12.135Z,46.32
2019-03-24T17:45:43.379Z,46.20
2019-03-24T17:48:14.724Z,46.22
2019-03-24T17:50:46.194Z,46.35
2019-03-24T17:53:17.453Z,46.15
2019-03-24T17:55:49.238Z,46.30
2019-03-24T17:58:20.721Z,46.23
2019-03-24T18:00:54.372Z,46.32
2019-03-24T18:03:28.383Z,46.29
2019-03-24T18:06:00.983Z,46.30
2019-03-24T18:08:32.315Z,46.46
2019-03-24T18:11:03.618Z,46.32
2019-03-24T18:13:34.879Z,46.36
2019-03-24T18:16:06.121Z,46.31
2019-03-24T18:18:37.241Z,45.97
2019-03-24T18:21:08.473Z,45.95
2019-03-24T18:23:39.659Z,45.76
2019-03-24T18:26:10.808Z,45.82
2019-03-24T18:28:42.049Z,45.70
2019-03-24T18:31:13.374Z,45.64
2019-03-24T18:33:44.884Z,45.40
2019-03-24T18:36:16.018Z,44.96
2019-03-24T18:38:50.744Z,44.25
2019-03-24T18:41:22.041Z,44.21
2019-03-24T18:43:53.389Z,44.34
2019-03-24T18:46:24.465Z,44.50
2019-03-24T18:48:55.684Z,44.02
2019-03-24T18:51:27.008Z,43.98
2019-03-24T18:53:58.233Z,43.70
2019-03-24T18:56:29.704Z,43.92
2019-03-24T18:59:00.929Z,44.04
2019-03-24T19:01:32.178Z,44.26
2019-03-24T19:04:04.512Z,44.09
2019-03-24T19:06:36.270Z,43.82
2019-03-24T19:09:08.926Z,43.62
2019-03-24T19:11:40.251Z,43.56
2019-03-24T19:14:11.467Z,43.78
2019-03-24T19:16:43.561Z,43.95
2019-03-24T19:19:14.821Z,44.13
2019-03-24T19:21:47.763Z,44.49
2019-03-24T19:24:19.027Z,43.40
2019-03-24T19:26:50.274Z,43.07
2019-03-24T19:29:21.380Z,44.08
2019-03-24T19:31:54.419Z,42.79
2019-03-24T19:34:25.657Z,42.36
2019-03-24T19:36:57.670Z,42.12
2019-03-24T19:39:29.147Z,42.06
2019-03-24T19:42:00.386Z,42.11
2019-03-24T19:44:31.703Z,41.98
2019-03-24T19:47:03.914Z,41.82
2019-03-24T19:49:35.081Z,41.50
2019-03-24T19:52:07.416Z,41.70
2019-03-24T19:54:40.340Z,41.65
2019-03-24T19:57:13.202Z,41.80
2019-03-24T19:59:44.769Z,41.68
2019-03-24T20:02:16.068Z,41.60
2019-03-24T20:04:47.310Z,41.88
2019-03-24T20:07:18.699Z,41.92
2019-03-24T20:09:50.117Z,41.79
2019-03-24T20:12:23.770Z,41.37
2019-03-24T20:14:56.355Z,41.66
2019-03-24T20:17:27.593Z,41.62
2019-03-24T20:19:58.829Z,41.80
2019-03-24T20:22:30.268Z,41.69
2019-03-24T20:25:01.500Z,41.50
2019-03-24T20:27:33.055Z,41.45
2019-03-24T20:30:07.016Z,41.52
2019-03-24T20:32:39.358Z,41.55
2019-03-24T20:35:10.608Z,41.58
2019-03-24T20:37:41.814Z,41.79
2019-03-24T20:40:13.922Z,41.78
2019-03-24T20:42:45.513Z,42.09
2019-03-24T20:45:20.169Z,42.29
2019-03-24T20:47:51.901Z,42.11
2019-03-24T20:50:24.305Z,42.43
2019-03-24T20:53:04.038Z,42.44
2019-03-24T20:55:28.905Z,42.49
2019-03-24T20:58:01.710Z,42.65
2019-03-24T21:00:36.323Z,42.83
2019-03-24T21:03:07.982Z,42.93
2019-03-24T21:05:39.925Z,43.04
2019-03-24T21:08:11.256Z,43.32
2019-03-24T21:10:44.812Z,43.45
2019-03-24T21:13:16.176Z,43.60
2019-03-24T21:15:49.015Z,43.61
2019-03-24T21:18:20.327Z,43.73
2019-03-24T21:20:53.394Z,43.79
2019-03-24T21:23:30.046Z,43.86
2019-03-24T21:26:06.827Z,44.03
2019-03-24T21:28:39.251Z,44.15
2019-03-24T21:31:10.574Z,44.20
2019-03-24T21:33:42.542Z,44.33
2019-03-24T21:36:16.428Z,44.35
2019-03-24T21:38:47.617Z,44.45
2019-03-24T21:41:18.883Z,44.39
2019-03-24T21:43:50.103Z,44.38
2019-03-24T21:46:21.531Z,44.65
2019-03-24T21:48:52.853Z,44.71
2019-03-24T21:51:24.002Z,44.83
2019-03-24T21:53:55.197Z,44.88
2019-03-24T21:56:26.400Z,45.12
2019-03-24T21:58:57.664Z,45.13
2019-03-24T22:01:32.792Z,45.20
2019-03-24T22:04:05.613Z,45.25
2019-03-24T22:06:37.289Z,45.34
2019-03-24T22:09:08.494Z,45.46
2019-03-24T22:11:41.914Z,45.52
2019-03-24T22:14:15.481Z,45.95
2019-03-24T22:16:47.483Z,45.79
2019-03-24T22:19:18.909Z,45.81
2019-03-24T22:21:53.222Z,45.97
2019-03-24T22:24:24.645Z,45.96
2019-03-24T22:26:55.679Z,45.97
2019-03-24T22:29:27.199Z,46.16
2019-03-24T22:31:58.481Z,46.28
2019-03-24T22:34:34.128Z,46.28
2019-03-24T22:37:15.424Z,46.45
2019-03-24T22:39:38.275Z,47.33
2019-03-24T22:42:10.432Z,46.75
2019-03-24T22:44:44.428Z,47.04
2019-03-24T22:47:16.828Z,47.41
2019-03-24T22:49:49.667Z,47.41
2019-03-24T22:52:23.878Z,47.49
2019-03-24T22:54:56.048Z,47.66
2019-03-24T22:57:27.438Z,47.95
2019-03-24T22:59:58.747Z,48.07
2019-03-24T23:02:30.947Z,48.17
2019-03-24T23:05:02.544Z,48.41
2019-03-24T23:07:34.847Z,48.47
2019-03-24T23:10:06.152Z,48.53
2019-03-24T23:12:37.474Z,48.58
2019-03-24T23:15:08.583Z,48.86
2019-03-24T23:17:39.892Z,49.00
2019-03-24T23:20:11.205Z,49.26
2019-03-24T23:22:43.486Z,49.32
2019-03-24T23:25:14.708Z,49.78
2019-03-24T23:27:45.972Z,50.16
2019-03-24T23:30:17.112Z,50.25
2019-03-24T23:32:48.729Z,50.46
2019-03-24T23:35:21.075Z,50.60
2019-03-24T23:37:52.740Z,50.78
2019-03-24T23:40:26.980Z,50.91
2019-03-24T23:42:58.113Z,51.20
2019-03-24T23:45:29.412Z,51.29
2019-03-24T23:48:00.514Z,51.47
2019-03-24T23:50:31.698Z,51.53
2019-03-24T23:53:03.807Z,51.80
2019-03-24T23:55:34.848Z,51.87
2019-03-24T23:58:06.752Z,52.06
